createdAt,value
2023-05-05T00:00:13.758Z,72.7571
2023-05-05T00:01:14.809Z,73.1015
2023-05-05T00:02:15.424Z,73.0319
2023-05-05T00:03:16.730Z,73.4090
2023-05-05T00:04:18.039Z,73.4626
2023-05-05T00:05:18.293Z,73.4226
2023-05-05T00:06:18.840Z,73.0820
2023-05-05T00:07:19.366Z,73.0293
2023-05-05T00:08:19.678Z,73.2342
2023-05-05T00:09:20.233Z,73.1829
2023-05-05T00:10:21.108Z,72.8987
2023-05-05T00:11:22.177Z,72.9105
2023-05-05T00:12:22.752Z,73.9635
2023-05-05T00:13:23.906Z,74.7686
2023-05-05T00:14:24.702Z,74.5845
2023-05-05T00:15:25.265Z,74.5902
2023-05-05T00:16:26.065Z,74.7028
2023-05-05T00:17:26.985Z,74.7962
2023-05-05T00:18:28.135Z,74.9327
2023-05-05T00:19:28.868Z,74.9183
2023-05-05T00:20:30.070Z,74.9792
2023-05-05T00:21:30.842Z,75.7872
2023-05-05T00:22:31.664Z,75.7971
2023-05-05T00:23:32.228Z,75.7659
2023-05-05T00:24:32.881Z,75.8917
2023-05-05T00:25:33.534Z,76.6478
2023-05-05T00:26:34.265Z,76.8855
2023-05-05T00:27:35.079Z,76.7283
2023-05-05T00:28:35.635Z,77.3948
2023-05-05T00:29:36.427Z,77.6780
2023-05-05T00:30:37.330Z,77.2378
2023-05-05T00:31:38.190Z,76.7701
2023-05-05T00:32:39.155Z,76.7179
2023-05-05T00:33:39.786Z,77.0254
2023-05-05T00:34:40.648Z,76.6022
2023-05-05T00:35:41.558Z,76.5083
2023-05-05T00:36:43.289Z,76.5872
2023-05-05T00:37:43.320Z,76.6980
2023-05-05T00:38:44.078Z,76.4766
2023-05-05T00:39:45.009Z,76.3929
2023-05-05T00:40:45.929Z,76.0262
2023-05-05T00:41:46.637Z,75.6560
2023-05-05T00:42:47.538Z,75.7299
2023-05-05T00:43:48.382Z,75.6413
2023-05-05T00:44:48.970Z,75.7399
2023-05-05T00:45:49.610Z,75.9374
2023-05-05T00:46:50.643Z,75.9252
2023-05-05T00:47:51.825Z,75.9181
2023-05-05T00:48:53.918Z,75.9724
2023-05-05T00:49:53.577Z,76.4781
2023-05-05T00:50:54.483Z,76.4522
2023-05-05T00:51:55.331Z,76.6548
2023-05-05T00:52:56.016Z,77.3318
2023-05-05T00:53:56.963Z,77.1049
2023-05-05T00:54:57.617Z,77.2518
2023-05-05T00:55:58.344Z,77.5702
2023-05-05T00:56:59.269Z,77.8716
2023-05-05T00:57:59.882Z,77.9415
2023-05-05T00:59:01.470Z,77.6167
2023-05-05T01:00:01.207Z,77.5627
2023-05-05T01:01:01.929Z,77.6727
2023-05-05T01:02:02.796Z,77.8692
2023-05-05T01:04:22.425Z,78.5309
2023-05-05T01:05:23.413Z,78.7537
2023-05-05T01:11:30.482Z,78.1004
2023-05-05T01:12:31.813Z,77.4542
2023-05-05T01:18:37.687Z,75.5854
2023-05-05T01:19:38.273Z,75.6171
2023-05-05T01:20:39.394Z,75.8222
2023-05-05T01:21:39.720Z,75.9349
2023-05-05T01:22:40.871Z,76.5505
2023-05-05T01:23:41.694Z,76.5387
2023-05-05T01:24:43.325Z,76.8443
2023-05-05T01:25:43.449Z,76.5758
2023-05-05T01:26:44.260Z,77.0764
2023-05-05T01:27:45.045Z,77.0848
2023-05-05T01:30:47.184Z,77.8777
2023-05-05T01:31:48.303Z,78.0451
2023-05-05T01:36:51.868Z,79.7628
2023-05-05T01:37:51.911Z,79.5647
2023-05-05T01:38:51.981Z,79.8174
2023-05-05T01:39:52.430Z,79.8002
2023-05-05T01:40:53.636Z,80.0160
2023-05-05T01:41:55.793Z,80.1162
2023-05-05T01:42:58.013Z,80.4022
2023-05-05T01:44:00.275Z,80.3981
2023-05-05T01:45:02.319Z,80.5324
2023-05-05T01:46:03.449Z,80.6324
2023-05-05T01:47:04.491Z,80.9049
2023-05-05T01:54:15.317Z,80.0761
2023-05-05T02:00:19.223Z,79.3383
2023-05-05T02:01:19.766Z,79.6500
2023-05-05T02:03:20.976Z,79.5969
2023-05-05T02:04:22.030Z,79.8489
2023-05-05T02:05:22.887Z,78.8854
2023-05-05T02:06:22.973Z,78.7242
2023-05-05T02:07:24.647Z,78.7254
2023-05-05T02:08:24.344Z,78.5070
2023-05-05T02:09:25.332Z,77.9603
2023-05-05T02:10:26.071Z,77.6252
2023-05-05T02:11:26.115Z,77.0318
2023-05-05T02:12:29.661Z,75.6291
2023-05-05T02:13:26.841Z,75.1347
2023-05-05T02:14:27.137Z,74.5149
2023-05-05T02:15:27.952Z,74.0405
2023-05-05T02:16:29.119Z,74.3434
2023-05-05T02:17:30.086Z,74.1950
2023-05-05T02:18:30.849Z,74.1936
2023-05-05T02:19:31.681Z,74.1014
2023-05-05T02:20:31.770Z,74.3075
2023-05-05T02:21:32.693Z,73.9549
2023-05-05T02:22:33.552Z,73.6396
2023-05-05T02:23:34.311Z,73.3335
2023-05-05T02:24:35.104Z,72.8921
2023-05-05T02:25:36.399Z,72.4868
2023-05-05T02:26:37.280Z,72.6004
2023-05-05T02:27:38.256Z,72.5893
2023-05-05T02:28:38.938Z,72.5217
2023-05-05T02:29:40.241Z,73.0287
2023-05-05T02:30:40.637Z,73.2013
2023-05-05T02:31:41.670Z,73.1628
2023-05-05T02:32:42.927Z,73.3328
2023-05-05T02:33:43.828Z,74.1953
2023-05-05T02:34:44.540Z,73.9582
2023-05-05T02:35:45.493Z,74.0304
2023-05-05T02:36:46.260Z,75.2040
2023-05-05T02:37:47.122Z,74.3005
2023-05-05T02:38:48.120Z,74.3500
2023-05-05T02:39:48.751Z,74.8610
2023-05-05T02:42:50.067Z,76.1621
2023-05-05T02:44:50.394Z,77.0946
2023-05-05T02:45:51.380Z,77.2134
2023-05-05T02:46:52.534Z,78.1902
2023-05-05T02:47:53.717Z,78.0012
2023-05-05T02:48:54.204Z,77.9669
2023-05-05T02:49:55.409Z,78.4884
2023-05-05T02:50:55.371Z,78.9940
2023-05-05T02:51:56.000Z,79.1422
2023-05-05T02:52:56.690Z,79.4284
2023-05-05T02:53:57.554Z,79.3522
2023-05-05T02:54:57.921Z,79.6505
2023-05-05T02:55:58.365Z,79.8424
2023-05-05T02:56:59.541Z,80.0712
2023-05-05T02:58:00.426Z,79.7755
2023-05-05T02:59:01.268Z,80.0450
2023-05-05T03:00:01.321Z,79.9807
2023-05-05T03:01:01.985Z,80.1374
2023-05-05T03:02:02.217Z,80.4236
2023-05-05T03:03:03.594Z,80.2150
2023-05-05T03:04:03.775Z,80.5206
2023-05-05T03:05:04.643Z,80.3704
2023-05-05T03:06:05.548Z,80.3398
2023-05-05T03:07:06.455Z,80.7661
2023-05-05T03:08:07.354Z,80.6858
2023-05-05T03:09:08.227Z,80.9854
2023-05-05T03:10:09.444Z,80.9656
2023-05-05T03:11:09.268Z,80.3812
2023-05-05T03:12:10.065Z,80.2341
2023-05-05T03:13:11.368Z,80.0970
2023-05-05T03:14:12.154Z,80.5765
2023-05-05T03:15:13.087Z,80.9681
2023-05-05T03:16:14.132Z,80.5130
2023-05-05T03:17:15.057Z,81.0588
2023-05-05T03:18:16.398Z,81.4911
2023-05-05T03:19:17.092Z,81.2072
2023-05-05T03:20:17.404Z,80.9658
2023-05-05T03:21:18.445Z,81.1859
2023-05-05T03:22:19.158Z,80.8963
2023-05-05T03:23:20.355Z,80.3360
2023-05-05T03:24:20.224Z,80.0603
2023-05-05T03:25:20.991Z,80.0749
2023-05-05T03:26:21.659Z,79.0840
2023-05-05T03:27:22.544Z,78.2954
2023-05-05T03:28:23.732Z,77.9231
2023-05-05T03:29:23.950Z,77.9542
2023-05-05T03:30:24.001Z,78.0412
2023-05-05T03:31:24.489Z,78.2581
2023-05-05T03:34:17.766Z,78.2262
2023-05-05T03:35:18.643Z,78.1409
2023-05-05T03:36:19.471Z,78.0322
2023-05-05T03:37:20.350Z,77.9282
2023-05-05T03:38:21.217Z,77.8192
2023-05-05T03:39:21.904Z,78.0803
2023-05-05T03:40:29.618Z,78.1208
2023-05-05T03:41:23.516Z,78.0233
2023-05-05T03:42:24.155Z,78.3963
2023-05-05T03:43:24.974Z,78.1182
2023-05-05T03:44:25.709Z,78.2335
2023-05-05T03:45:26.659Z,78.0128
2023-05-05T03:46:27.674Z,77.7087
2023-05-05T03:47:29.623Z,77.7956
2023-05-05T03:49:30.320Z,77.8299
2023-05-05T03:50:30.466Z,77.9648
2023-05-05T03:51:31.023Z,77.5927
2023-05-05T03:52:31.553Z,77.4461
2023-05-05T03:53:32.377Z,77.0450
2023-05-05T03:54:33.671Z,77.1353
2023-05-05T03:55:34.699Z,77.3150
2023-05-05T03:56:35.978Z,77.8079
2023-05-05T03:57:36.757Z,77.1223
2023-05-05T03:58:37.256Z,77.3701
2023-05-05T03:59:38.267Z,77.1683
2023-05-05T04:00:39.603Z,76.9515
2023-05-05T04:01:40.527Z,77.2446
2023-05-05T04:02:41.346Z,77.3923
2023-05-05T04:03:43.329Z,77.7023
2023-05-05T04:04:44.702Z,77.4430
2023-05-05T04:05:44.846Z,77.7020
2023-05-05T04:06:46.813Z,77.4988
2023-05-05T04:07:47.890Z,77.4910
2023-05-05T04:08:48.718Z,77.7418
2023-05-05T04:09:49.600Z,77.7683
2023-05-05T04:10:49.645Z,78.0211
2023-05-05T04:11:49.859Z,77.7620
2023-05-05T04:12:51.031Z,77.5208
2023-05-05T04:13:52.053Z,77.6118
2023-05-05T04:14:52.689Z,77.8445
2023-05-05T04:16:53.321Z,78.0505
2023-05-05T04:17:53.565Z,78.2815
2023-05-05T04:18:54.538Z,78.4791
2023-05-05T04:19:55.374Z,78.8496
2023-05-05T04:20:55.408Z,79.4667
2023-05-05T04:21:55.901Z,79.7491
2023-05-05T04:22:58.248Z,80.1702
2023-05-05T04:23:59.144Z,80.3817
2023-05-05T04:25:00.301Z,80.5337
2023-05-05T04:26:01.135Z,80.8285
2023-05-05T04:27:02.055Z,81.0777
2023-05-05T04:29:02.815Z,81.4510
2023-05-05T04:30:03.854Z,81.2693
2023-05-05T04:32:04.459Z,81.6497
2023-05-05T04:33:04.612Z,82.5210
2023-05-05T04:34:05.408Z,82.1563
2023-05-05T04:35:06.431Z,81.2917
2023-05-05T04:36:07.472Z,80.7373
2023-05-05T04:37:08.304Z,82.4501
2023-05-05T04:38:09.365Z,81.6745
2023-05-05T04:39:10.522Z,81.9699
2023-05-05T04:40:11.352Z,81.6261
2023-05-05T04:41:12.338Z,79.8982
2023-05-05T04:42:12.533Z,80.5531
2023-05-05T04:43:13.500Z,80.5012
2023-05-05T04:44:14.533Z,81.0318
2023-05-05T04:45:15.295Z,80.1523
2023-05-05T04:46:16.326Z,79.1142
2023-05-05T04:47:16.302Z,78.8238
2023-05-05T04:48:16.343Z,78.9403
2023-05-05T04:49:17.514Z,78.8068
2023-05-05T04:50:17.501Z,78.8716
2023-05-05T04:51:18.456Z,79.0675
2023-05-05T04:52:19.329Z,79.1124
2023-05-05T04:53:20.187Z,79.5607
2023-05-05T04:54:21.201Z,79.9138
2023-05-05T04:55:22.003Z,79.8712
2023-05-05T04:56:22.979Z,80.1691
2023-05-05T04:57:24.016Z,80.2282
2023-05-05T04:58:24.893Z,80.5636
2023-05-05T04:59:25.887Z,80.6728
2023-05-05T05:00:26.668Z,81.3707
2023-05-05T05:01:27.860Z,81.3919
2023-05-05T05:02:28.286Z,81.0685
2023-05-05T05:03:28.489Z,81.3451
2023-05-05T05:04:28.811Z,81.5166
2023-05-05T05:05:29.789Z,80.6669
2023-05-05T05:06:30.777Z,80.5892
2023-05-05T05:07:30.818Z,80.2677
2023-05-05T05:08:31.680Z,80.1777
2023-05-05T05:09:32.633Z,79.8919
2023-05-05T05:10:33.600Z,80.3134
2023-05-05T05:11:34.967Z,80.4597
2023-05-05T05:12:35.115Z,80.5445
2023-05-05T05:13:35.407Z,80.0379
2023-05-05T05:14:36.423Z,80.0142
2023-05-05T05:15:36.812Z,80.2508
2023-05-05T05:16:37.094Z,80.3357
2023-05-05T05:17:38.197Z,81.2707
2023-05-05T05:18:39.662Z,81.6858
2023-05-05T05:19:40.079Z,81.6778
2023-05-05T05:20:40.756Z,82.1736
2023-05-05T05:21:40.891Z,82.8777
2023-05-05T05:22:41.519Z,83.2925
2023-05-05T05:23:42.080Z,83.4093
2023-05-05T05:24:43.231Z,83.4050
2023-05-05T05:25:43.315Z,83.6810
2023-05-05T05:26:44.607Z,84.8188
2023-05-05T05:27:50.172Z,85.1778
2023-05-05T05:28:45.870Z,85.5038
2023-05-05T05:29:46.748Z,85.4717
2023-05-05T05:30:47.486Z,85.2455
2023-05-05T05:31:47.478Z,85.2924
2023-05-05T05:32:49.102Z,85.2527
2023-05-05T05:33:49.085Z,85.2449
2023-05-05T05:34:49.925Z,85.2389
2023-05-05T05:35:50.065Z,85.1682
2023-05-05T05:36:51.069Z,85.0710
2023-05-05T05:37:51.107Z,85.1134
2023-05-05T05:38:52.396Z,85.0648
2023-05-05T05:39:53.443Z,85.1459
2023-05-05T05:40:53.976Z,85.2122
2023-05-05T05:41:54.886Z,85.2522
2023-05-05T05:42:56.265Z,85.2682
2023-05-05T05:43:57.318Z,85.1446
2023-05-05T05:44:58.147Z,84.8860
2023-05-05T05:45:58.317Z,84.8836
2023-05-05T05:46:58.909Z,84.8919
2023-05-05T05:48:00.045Z,84.7701
2023-05-05T05:49:00.019Z,84.7006
2023-05-05T05:50:01.229Z,84.4950
2023-05-05T05:51:02.448Z,84.2917
2023-05-05T05:52:02.290Z,84.5424
2023-05-05T05:53:02.952Z,85.0062
2023-05-05T05:54:04.159Z,82.7887
2023-05-05T05:55:05.090Z,81.7011
2023-05-05T05:56:06.301Z,81.8161
2023-05-05T05:57:07.597Z,81.9229
2023-05-05T05:58:08.484Z,81.4136
2023-05-05T05:59:09.537Z,81.5734
2023-05-05T06:00:11.662Z,82.0565
2023-05-05T06:01:12.505Z,80.7718
2023-05-05T06:02:13.885Z,79.8207
2023-05-05T06:03:14.876Z,78.8259
2023-05-05T06:04:15.955Z,77.5586
2023-05-05T06:05:15.887Z,77.7596
2023-05-05T06:06:16.762Z,77.4595
2023-05-05T06:07:17.740Z,77.8893
2023-05-05T06:08:19.070Z,78.2349
2023-05-05T06:09:19.936Z,78.1765
2023-05-05T06:10:28.047Z,78.6941
2023-05-05T06:11:24.873Z,79.6297
2023-05-05T06:12:25.703Z,80.0641
2023-05-05T06:13:25.867Z,80.2819
2023-05-05T06:14:26.516Z,80.6261
2023-05-05T06:15:27.650Z,81.1312
2023-05-05T06:16:29.020Z,80.1957
2023-05-05T06:17:30.046Z,78.6837
2023-05-05T06:18:30.854Z,78.6427
2023-05-05T06:19:31.693Z,76.8492
2023-05-05T06:20:32.681Z,75.1645
2023-05-05T06:21:33.701Z,76.3803
2023-05-05T06:22:34.645Z,76.7098
2023-05-05T06:23:35.629Z,75.9944
2023-05-05T06:24:36.636Z,76.5230
2023-05-05T06:25:37.544Z,75.7225
2023-05-05T06:26:38.547Z,74.3829
2023-05-05T06:27:39.493Z,74.5107
2023-05-05T06:28:40.669Z,74.5290
2023-05-05T06:29:41.798Z,74.4038
2023-05-05T06:30:43.049Z,74.3879
2023-05-05T06:31:44.327Z,74.4013
2023-05-05T06:32:45.480Z,73.3447
2023-05-05T06:33:46.525Z,73.4519
2023-05-05T06:34:46.632Z,73.8240
2023-05-05T06:35:47.824Z,74.0633
2023-05-05T06:36:48.214Z,74.6527
2023-05-05T06:37:50.259Z,73.8302
2023-05-05T06:40:50.534Z,74.2463
2023-05-05T06:41:51.882Z,73.0823
2023-05-05T06:42:53.050Z,71.3238
2023-05-05T06:43:54.549Z,72.1035
2023-05-05T06:44:55.003Z,72.7663
2023-05-05T06:45:56.191Z,73.5934
2023-05-05T06:46:56.219Z,73.1873
2023-05-05T06:47:57.643Z,72.5162
2023-05-05T06:48:57.597Z,71.5062
2023-05-05T06:49:58.717Z,71.1428
2023-05-05T06:50:59.417Z,70.9288
2023-05-05T06:52:00.097Z,69.7979
2023-05-05T06:53:01.109Z,69.4899
2023-05-05T06:54:02.331Z,70.2682
2023-05-05T06:55:02.984Z,70.7789
2023-05-05T06:56:04.124Z,70.0188
2023-05-05T06:57:04.269Z,70.2275
2023-05-05T06:58:05.230Z,70.1548
2023-05-05T06:59:06.426Z,70.7195
2023-05-05T07:00:07.832Z,69.5120
2023-05-05T07:01:08.111Z,68.0557
2023-05-05T07:02:08.184Z,69.3399
2023-05-05T07:03:08.302Z,70.5424
2023-05-05T07:04:08.549Z,69.9078
2023-05-05T07:05:09.648Z,69.2117
2023-05-05T07:06:10.747Z,70.0216
2023-05-05T07:07:12.012Z,69.5218
2023-05-05T07:08:13.085Z,69.0148
2023-05-05T07:09:15.755Z,71.1400
2023-05-05T07:10:15.653Z,71.1120
2023-05-05T07:11:16.422Z,70.0337
2023-05-05T07:12:17.622Z,70.4985
2023-05-05T07:13:19.001Z,69.8389
2023-05-05T07:14:19.041Z,69.5735
2023-05-05T07:15:29.096Z,69.9922
2023-05-05T07:16:24.623Z,69.1097
2023-05-05T07:17:25.864Z,69.1085
2023-05-05T07:18:25.872Z,68.5676
2023-05-05T07:19:26.770Z,68.0733
2023-05-05T07:20:27.922Z,67.9694
2023-05-05T07:21:28.928Z,67.9780
2023-05-05T07:22:30.116Z,68.1709
2023-05-05T07:23:31.265Z,67.9307
2023-05-05T07:24:32.261Z,67.8955
2023-05-05T07:25:33.399Z,68.2064
2023-05-05T07:26:34.711Z,67.1391
2023-05-05T07:27:35.811Z,67.4175
2023-05-05T07:28:36.930Z,67.9188
2023-05-05T07:29:37.833Z,68.5097
2023-05-05T07:30:38.260Z,67.7900
2023-05-05T07:31:39.547Z,67.9110
2023-05-05T07:32:39.614Z,67.5460
2023-05-05T07:33:40.761Z,67.6006
2023-05-05T07:34:41.626Z,67.9920
2023-05-05T07:35:42.597Z,67.6258
2023-05-05T07:36:43.756Z,67.7468
2023-05-05T07:37:44.718Z,67.3821
2023-05-05T07:38:44.965Z,67.1567
2023-05-05T07:39:45.939Z,67.7015
2023-05-05T07:40:46.649Z,67.8625
2023-05-05T07:41:47.811Z,67.7070
2023-05-05T07:42:48.826Z,67.8236
2023-05-05T07:43:49.951Z,67.3264
2023-05-05T07:44:50.957Z,67.2800
2023-05-05T07:45:52.133Z,67.4776
2023-05-05T07:46:52.137Z,67.5954
2023-05-05T07:47:53.249Z,67.0060
2023-05-05T07:49:54.211Z,67.6751
2023-05-05T07:50:54.619Z,68.1366
2023-05-05T07:51:55.873Z,67.3193
2023-05-05T07:53:02.525Z,66.5360
2023-05-05T07:53:56.873Z,67.4439
2023-05-05T07:54:57.074Z,67.1560
2023-05-05T07:55:58.079Z,67.7949
2023-05-05T07:56:59.023Z,67.1613
2023-05-05T07:58:00.200Z,67.1823
2023-05-05T07:59:01.299Z,66.9144
2023-05-05T08:00:02.151Z,66.9925
2023-05-05T08:01:02.226Z,67.0756
2023-05-05T08:02:03.138Z,66.9336
2023-05-05T08:03:03.878Z,66.9336
2023-05-05T08:04:04.938Z,67.5289
2023-05-05T08:05:05.060Z,67.3523
2023-05-05T08:06:04.990Z,66.8066
2023-05-05T08:07:06.102Z,66.7612
2023-05-05T08:08:06.706Z,67.0609
2023-05-05T08:09:07.624Z,67.7669
2023-05-05T08:10:08.916Z,68.1637
2023-05-05T08:11:10.037Z,67.3856
2023-05-05T08:12:10.763Z,66.8683
2023-05-05T08:13:11.071Z,67.0869
2023-05-05T08:14:12.289Z,66.8393
2023-05-05T08:15:12.588Z,67.3973
2023-05-05T08:16:12.708Z,67.6527
2023-05-05T08:17:13.845Z,66.9233
2023-05-05T08:18:14.017Z,67.3767
2023-05-05T08:19:27.566Z,67.4969
2023-05-05T08:20:14.638Z,67.4831
2023-05-05T08:21:14.744Z,67.6019
2023-05-05T08:22:15.881Z,68.0431
2023-05-05T08:23:16.010Z,68.3671
2023-05-05T08:24:17.403Z,67.6063
2023-05-05T08:25:18.667Z,67.0456
2023-05-05T08:26:18.845Z,67.1772
2023-05-05T08:27:19.812Z,67.7075
2023-05-05T08:28:19.895Z,66.6048
2023-05-05T08:29:20.913Z,66.4753
2023-05-05T08:30:20.963Z,65.1931
2023-05-05T08:31:22.211Z,64.5487
2023-05-05T08:34:23.877Z,65.3605
2023-05-05T08:35:24.301Z,65.4301
2023-05-05T08:36:25.543Z,64.9454
2023-05-05T08:37:26.558Z,64.8783
2023-05-05T08:38:27.720Z,65.0949
2023-05-05T08:39:27.998Z,64.6273
2023-05-05T08:40:28.584Z,64.3920
2023-05-05T08:41:29.640Z,64.5623
2023-05-05T08:42:36.937Z,64.3495
2023-05-05T08:43:31.931Z,64.6105
2023-05-05T08:44:33.150Z,66.0151
2023-05-05T08:45:34.059Z,66.0695
2023-05-05T08:46:35.265Z,65.8962
2023-05-05T08:47:35.496Z,64.6100
2023-05-05T08:48:35.734Z,64.8118
2023-05-05T08:50:36.732Z,65.3672
2023-05-05T08:51:37.503Z,65.1587
2023-05-05T08:52:39.080Z,64.4858
2023-05-05T08:53:40.164Z,65.2282
2023-05-05T08:54:40.221Z,64.9651
2023-05-05T08:55:40.695Z,65.2821
2023-05-05T08:56:41.984Z,64.5616
2023-05-05T08:57:43.406Z,64.4422
2023-05-05T08:58:44.386Z,63.8097
2023-05-05T08:59:44.453Z,63.1376
2023-05-05T09:00:45.735Z,63.3638
2023-05-05T09:01:45.990Z,63.3537
2023-05-05T09:02:46.242Z,63.5149
2023-05-05T09:03:47.266Z,63.5693
2023-05-05T09:04:48.556Z,64.6392
2023-05-05T09:05:49.049Z,64.3424
2023-05-05T09:06:49.131Z,64.1560
2023-05-05T09:07:50.384Z,64.2690
2023-05-05T09:08:51.676Z,64.5377
2023-05-05T09:09:51.693Z,63.7012
2023-05-05T09:10:51.997Z,64.3157
2023-05-05T09:11:53.162Z,64.9958
2023-05-05T09:12:53.251Z,65.4274
2023-05-05T09:13:53.462Z,65.0571
2023-05-05T09:14:53.402Z,64.5253
2023-05-05T09:15:53.538Z,65.5187
2023-05-05T09:16:53.547Z,65.5842
2023-05-05T09:17:53.767Z,63.6292
2023-05-05T09:18:54.982Z,63.4343
2023-05-05T09:19:55.046Z,63.1438
2023-05-05T09:20:58.143Z,63.6007
2023-05-05T09:21:56.743Z,64.4241
2023-05-05T09:22:57.976Z,64.2463
2023-05-05T09:24:04.897Z,65.0474
2023-05-05T09:24:59.700Z,64.3795
2023-05-05T09:25:59.917Z,64.4136
2023-05-05T09:27:01.356Z,64.8330
2023-05-05T09:28:01.327Z,65.3001
2023-05-05T09:29:01.418Z,63.3823
2023-05-05T09:30:02.653Z,62.3468
2023-05-05T09:31:02.736Z,62.7750
2023-05-05T09:32:02.828Z,62.5689
2023-05-05T09:33:03.559Z,62.4947
2023-05-05T09:34:04.720Z,62.4597
2023-05-05T09:35:04.730Z,62.1366
2023-05-05T09:36:04.877Z,62.4190
2023-05-05T09:37:06.370Z,62.9092
2023-05-05T09:38:07.017Z,62.0631
2023-05-05T09:39:07.280Z,62.4499
2023-05-05T09:40:07.389Z,63.4389
2023-05-05T09:41:08.637Z,63.7366
2023-05-05T09:42:09.910Z,63.3433
2023-05-05T09:43:10.073Z,63.0529
2023-05-05T09:44:10.164Z,62.8988
2023-05-05T09:45:11.342Z,62.5806
2023-05-05T09:46:11.545Z,62.2556
2023-05-05T09:47:28.989Z,62.4049
2023-05-05T09:48:17.325Z,62.5463
2023-05-05T09:49:17.453Z,62.7107
2023-05-05T09:50:17.757Z,63.8150
2023-05-05T09:51:17.843Z,64.1528
2023-05-05T09:52:17.863Z,64.3492
2023-05-05T09:53:18.177Z,64.8422
2023-05-05T09:54:18.278Z,64.4530
2023-05-05T09:55:18.650Z,63.0629
2023-05-05T09:56:19.119Z,62.9664
2023-05-05T09:57:20.404Z,62.1138
2023-05-05T09:58:20.703Z,61.2563
2023-05-05T09:59:20.629Z,61.0923
2023-05-05T10:00:21.293Z,61.0387
2023-05-05T10:01:21.266Z,61.3857
2023-05-05T10:02:21.598Z,61.5634
2023-05-05T10:03:21.722Z,61.2624
2023-05-05T10:04:21.879Z,61.4906
2023-05-05T10:05:22.110Z,63.5144
2023-05-05T10:06:22.396Z,62.5828
2023-05-05T10:07:23.685Z,62.6964
2023-05-05T10:08:23.712Z,61.9804
2023-05-05T10:09:25.323Z,60.9454
2023-05-05T10:10:26.920Z,60.7336
2023-05-05T10:11:25.865Z,61.6761
2023-05-05T10:12:27.021Z,62.4440
2023-05-05T10:13:27.361Z,63.3832
2023-05-05T10:14:28.612Z,62.3200
2023-05-05T10:15:28.899Z,60.9267
2023-05-05T10:16:29.712Z,61.0148
2023-05-05T10:17:30.282Z,60.6018
2023-05-05T10:18:30.947Z,59.9072
2023-05-05T10:19:30.873Z,60.0258
2023-05-05T10:20:31.087Z,59.8893
2023-05-05T10:21:31.140Z,60.1108
2023-05-05T10:22:31.325Z,60.4371
2023-05-05T10:23:31.464Z,61.1231
2023-05-05T10:24:31.746Z,62.6686
2023-05-05T10:27:33.220Z,60.2392
2023-05-05T10:28:33.347Z,60.9446
2023-05-05T10:29:34.827Z,59.4123
2023-05-05T10:30:35.417Z,60.7988
2023-05-05T10:31:35.551Z,60.7713
2023-05-05T10:33:42.679Z,58.9316
2023-05-05T10:34:43.809Z,58.6294
2023-05-05T10:35:45.028Z,58.9763
2023-05-05T10:36:45.333Z,58.7412
2023-05-05T10:37:45.242Z,58.6074
2023-05-05T10:38:45.304Z,59.0739
2023-05-05T10:39:46.760Z,59.3669
2023-05-05T10:40:47.625Z,58.7436
2023-05-05T10:41:48.004Z,59.2171
2023-05-05T10:42:48.004Z,58.6564
2023-05-05T10:43:48.171Z,58.5140
2023-05-05T10:44:48.286Z,58.7870
2023-05-05T10:45:49.115Z,58.6993
2023-05-05T10:46:49.663Z,59.1883
2023-05-05T10:47:50.118Z,59.7896
2023-05-05T10:48:50.744Z,59.4057
2023-05-05T10:49:50.689Z,59.7345
2023-05-05T10:50:50.823Z,59.3366
2023-05-05T10:51:51.407Z,58.7136
2023-05-05T10:52:51.683Z,58.6450
2023-05-05T10:53:52.978Z,58.2831
2023-05-05T10:54:53.418Z,58.2985
2023-05-05T10:55:53.386Z,57.7545
2023-05-05T10:56:53.820Z,57.8282
2023-05-05T10:57:53.831Z,57.6398
2023-05-05T10:59:00.141Z,58.0189
2023-05-05T10:59:55.230Z,58.1930
2023-05-05T11:00:55.503Z,58.3465
2023-05-05T11:01:56.291Z,58.1532
2023-05-05T11:02:57.236Z,58.3625
2023-05-05T11:03:57.949Z,58.8554
2023-05-05T11:04:58.233Z,59.1003
2023-05-05T11:05:58.380Z,57.4674
2023-05-05T11:06:59.649Z,57.3331
2023-05-05T11:08:00.709Z,57.5620
2023-05-05T11:09:00.821Z,57.6990
2023-05-05T11:10:01.002Z,57.9994
2023-05-05T11:11:01.860Z,56.8793
2023-05-05T11:12:02.315Z,55.9173
2023-05-05T11:13:02.750Z,55.9505
2023-05-05T11:14:03.757Z,55.4885
2023-05-05T11:15:03.919Z,56.3434
2023-05-05T11:16:04.097Z,56.9880
2023-05-05T11:17:04.681Z,55.9045
2023-05-05T11:18:07.376Z,54.9578
2023-05-05T11:19:05.063Z,55.4559
2023-05-05T11:20:05.121Z,55.4815
2023-05-05T11:21:05.481Z,56.0393
2023-05-05T11:22:05.689Z,55.5855
2023-05-05T11:23:05.886Z,55.8781
2023-05-05T11:24:06.056Z,56.4471
2023-05-05T11:25:07.249Z,55.7720
2023-05-05T11:26:07.502Z,54.7223
2023-05-05T11:27:08.921Z,55.0187
2023-05-05T11:28:09.107Z,54.9045
2023-05-05T11:29:09.272Z,55.4921
2023-05-05T11:30:10.520Z,54.7799
2023-05-05T11:31:10.709Z,55.1676
2023-05-05T11:32:11.010Z,53.9928
2023-05-05T11:33:11.141Z,54.3117
2023-05-05T11:34:12.378Z,54.5659
2023-05-05T11:35:12.497Z,55.2516
2023-05-05T11:36:13.950Z,55.5268
2023-05-05T11:37:15.285Z,56.2221
2023-05-05T11:38:15.478Z,54.2442
2023-05-05T11:39:16.763Z,53.5727
2023-05-05T11:40:17.019Z,53.1115
2023-05-05T11:41:17.071Z,53.2494
2023-05-05T11:42:18.305Z,53.7297
2023-05-05T11:43:18.530Z,53.2799
2023-05-05T11:44:18.570Z,53.4094
2023-05-05T11:45:18.693Z,53.9181
2023-05-05T11:46:19.104Z,53.5240
2023-05-05T11:47:19.596Z,54.2288
2023-05-05T11:48:20.080Z,53.2883
2023-05-05T11:49:20.637Z,52.3194
2023-05-05T11:50:20.590Z,52.6819
2023-05-05T11:51:20.714Z,52.3649
2023-05-05T11:52:20.765Z,52.4120
2023-05-05T11:53:21.050Z,52.8432
2023-05-05T11:54:21.285Z,53.7106
2023-05-05T11:55:21.369Z,54.5391
2023-05-05T11:56:22.810Z,53.0122
2023-05-05T11:57:22.895Z,52.3550
2023-05-05T11:58:23.136Z,52.6363
2023-05-05T11:59:24.423Z,53.0576
2023-05-05T12:00:24.621Z,53.5367
2023-05-05T12:01:25.915Z,53.6353
2023-05-05T12:02:26.332Z,52.5796
2023-05-05T12:03:28.138Z,54.8741
2023-05-05T12:04:28.533Z,55.0034
2023-05-05T12:05:28.916Z,53.2053
2023-05-05T12:06:29.233Z,52.7686
2023-05-05T12:07:29.370Z,53.5865
2023-05-05T12:08:29.402Z,53.6422
2023-05-05T12:09:29.503Z,54.4862
2023-05-05T12:10:30.642Z,54.2109
2023-05-05T12:11:31.966Z,55.1127
2023-05-05T12:12:32.337Z,54.0315
2023-05-05T12:13:33.246Z,53.4769
2023-05-05T12:14:34.464Z,52.0356
2023-05-05T12:15:34.676Z,51.0682
2023-05-05T12:16:34.882Z,50.8855
2023-05-05T12:17:35.533Z,51.2430
2023-05-05T12:18:36.222Z,51.4418
2023-05-05T12:19:36.337Z,51.6323
2023-05-05T12:20:37.680Z,52.2471
2023-05-05T12:21:37.860Z,53.4383
2023-05-05T12:22:38.058Z,52.3002
2023-05-05T12:23:38.616Z,51.8812
2023-05-05T12:24:38.630Z,51.3453
2023-05-05T12:25:38.864Z,51.1216
2023-05-05T12:26:38.876Z,50.7628
2023-05-05T12:27:39.285Z,50.4062
2023-05-05T12:28:39.356Z,50.1546
2023-05-05T12:29:39.623Z,50.2490
2023-05-05T12:30:40.655Z,50.4329
2023-05-05T12:31:41.095Z,50.1897
2023-05-05T12:32:41.716Z,50.1332
2023-05-05T12:33:41.942Z,49.5532
2023-05-05T12:34:42.107Z,49.4764
2023-05-05T12:35:42.100Z,48.2952
2023-05-05T12:36:42.685Z,49.3819
2023-05-05T12:37:43.914Z,48.7454
2023-05-05T12:38:44.154Z,48.1180
2023-05-05T12:39:45.634Z,46.8902
2023-05-05T12:40:46.407Z,47.4510
2023-05-05T12:41:46.537Z,48.2460
2023-05-05T12:42:46.627Z,48.1218
2023-05-05T12:43:46.822Z,49.1245
2023-05-05T12:44:46.800Z,48.3843
2023-05-05T12:45:47.135Z,47.2435
2023-05-05T12:46:47.617Z,47.0703
2023-05-05T12:47:48.059Z,46.6460
2023-05-05T12:48:48.601Z,46.2675
2023-05-05T12:49:48.941Z,45.3018
2023-05-05T12:50:50.450Z,45.4224
2023-05-05T12:51:50.516Z,46.3925
2023-05-05T12:52:50.724Z,46.1435
2023-05-05T12:53:51.753Z,47.0309
2023-05-05T12:54:52.953Z,47.1343
2023-05-05T12:55:53.277Z,46.0881
2023-05-05T12:56:53.482Z,46.4799
2023-05-05T12:57:53.666Z,47.9117
2023-05-05T12:58:53.864Z,48.0968
2023-05-05T12:59:55.174Z,48.3453
2023-05-05T13:00:55.739Z,46.7851
2023-05-05T13:01:56.202Z,48.1963